sensor_id;sensor_type;location;lat;lon;timestamp;temperature;humidity
15617;DHT22;7908;51.688;7.130;2022-09-09T00:01:27;15.10;99.90
15617;DHT22;7908;51.688;7.130;2022-09-09T00:04:05;15.00;99.90
15617;DHT22;7908;51.688;7.130;2022-09-09T00:06:46;15.00;99.90
15617;DHT22;7908;51.688;7.130;2022-09-09T00:09:19;14.90;99.90
15617;DHT22;7908;51.688;7.130;2022-09-09T00:11:52;14.90;99.90
15617;DHT22;7908;51.688;7.130;2022-09-09T00:14:29;14.80;99.90
15617;DHT22;7908;51.688;7.130;2022-09-09T00:17:11;14.90;99.90
15617;DHT22;7908;51.688;7.130;2022-09-09T00:19:44;14.90;99.90
15617;DHT22;7908;51.688;7.130;2022-09-09T00:22:20;14.80;99.90
15617;DHT22;7908;51.688;7.130;2022-09-09T00:24:52;14.80;99.90
15617;DHT22;7908;51.688;7.130;2022-09-09T00:27:26;14.80;99.90
15617;DHT22;7908;51.688;7.130;2022-09-09T00:29:59;14.80;99.90
15617;DHT22;7908;51.688;7.130;2022-09-09T00:32:30;14.80;99.90
15617;DHT22;7908;51.688;7.130;2022-09-09T00:35:11;14.80;99.90
15617;DHT22;7908;51.688;7.130;2022-09-09T00:37:48;14.80;99.90
15617;DHT22;7908;51.688;7.130;2022-09-09T00:40:55;14.70;99.90
15617;DHT22;7908;51.688;7.130;2022-09-09T00:44:09;14.80;99.90
15617;DHT22;7908;51.688;7.130;2022-09-09T00:47:45;14.80;99.90
15617;DHT22;7908;51.688;7.130;2022-09-09T00:54:57;14.70;99.90
15617;DHT22;7908;51.688;7.130;2022-09-09T00:58:07;14.70;99.90
15617;DHT22;7908;51.688;7.130;2022-09-09T01:00:56;14.60;99.90
15617;DHT22;7908;51.688;7.130;2022-09-09T01:03:44;14.60;99.90
15617;DHT22;7908;51.688;7.130;2022-09-09T01:06:20;14.50;99.90
15617;DHT22;7908;51.688;7.130;2022-09-09T01:09:10;14.50;99.90
15617;DHT22;7908;51.688;7.130;2022-09-09T01:12:04;14.50;99.90
15617;DHT22;7908;51.688;7.130;2022-09-09T01:15:04;14.40;99.90
15617;DHT22;7908;51.688;7.130;2022-09-09T01:18:08;14.40;99.90
15617;DHT22;7908;51.688;7.130;2022-09-09T01:24:15;14.30;99.90
15617;DHT22;7908;51.688;7.130;2022-09-09T01:31:59;14.30;99.90
15617;DHT22;7908;51.688;7.130;2022-09-09T01:35:43;14.30;99.90
15617;DHT22;7908;51.688;7.130;2022-09-09T01:39:15;14.40;99.90
15617;DHT22;7908;51.688;7.130;2022-09-09T01:42:39;14.20;99.90
15617;DHT22;7908;51.688;7.130;2022-09-09T01:45:26;14.20;99.90
15617;DHT22;7908;51.688;7.130;2022-09-09T01:48:00;14.20;99.90
15617;DHT22;7908;51.688;7.130;2022-09-09T01:50:35;14.20;99.90
15617;DHT22;7908;51.688;7.130;2022-09-09T01:53:05;14.20;99.90
15617;DHT22;7908;51.688;7.130;2022-09-09T01:55:48;14.10;99.90
15617;DHT22;7908;51.688;7.130;2022-09-09T02:06:24;14.20;99.90
15617;DHT22;7908;51.688;7.130;2022-09-09T02:08:57;14.10;99.90
15617;DHT22;7908;51.688;7.130;2022-09-09T02:11:36;14.20;99.90
15617;DHT22;7908;51.688;7.130;2022-09-09T02:14:16;14.10;99.90
15617;DHT22;7908;51.688;7.130;2022-09-09T02:17:03;14.10;99.90
15617;DHT22;7908;51.688;7.130;2022-09-09T02:19:44;14.20;99.90
15617;DHT22;7908;51.688;7.130;2022-09-09T02:22:22;14.10;99.90
15617;DHT22;7908;51.688;7.130;2022-09-09T02:24:56;14.10;99.90
15617;DHT22;7908;51.688;7.130;2022-09-09T02:27:49;14.10;99.90
15617;DHT22;7908;51.688;7.130;2022-09-09T02:30:34;14.10;99.90
15617;DHT22;7908;51.688;7.130;2022-09-09T02:33:13;14.10;99.90
15617;DHT22;7908;51.688;7.130;2022-09-09T02:35:45;14.00;99.90
15617;DHT22;7908;51.688;7.130;2022-09-09T02:38:24;14.00;99.90
15617;DHT22;7908;51.688;7.130;2022-09-09T02:41:01;14.10;99.90
15617;DHT22;7908;51.688;7.130;2022-09-09T02:43:32;14.00;99.90
15617;DHT22;7908;51.688;7.130;2022-09-09T02:46:07;14.00;99.90
15617;DHT22;7908;51.688;7.130;2022-09-09T02:48:46;14.10;99.90
15617;DHT22;7908;51.688;7.130;2022-09-09T02:51:27;14.10;99.90
15617;DHT22;7908;51.688;7.130;2022-09-09T03:09:20;14.40;99.90
15617;DHT22;7908;51.688;7.130;2022-09-09T03:11:49;14.40;99.90
15617;DHT22;7908;51.688;7.130;2022-09-09T03:14:20;14.40;99.90
15617;DHT22;7908;51.688;7.130;2022-09-09T03:17:40;14.30;99.90
15617;DHT22;7908;51.688;7.130;2022-09-09T03:19:59;14.40;99.90
15617;DHT22;7908;51.688;7.130;2022-09-09T03:22:28;14.50;99.90
15617;DHT22;7908;51.688;7.130;2022-09-09T03:24:59;14.50;99.90
15617;DHT22;7908;51.688;7.130;2022-09-09T03:27:29;14.50;99.90
15617;DHT22;7908;51.688;7.130;2022-09-09T03:29:58;14.50;99.90
15617;DHT22;7908;51.688;7.130;2022-09-09T03:32:31;14.50;99.90
15617;DHT22;7908;51.688;7.130;2022-09-09T03:35:02;14.50;99.90
15617;DHT22;7908;51.688;7.130;2022-09-09T03:37:31;14.50;99.90
15617;DHT22;7908;51.688;7.130;2022-09-09T03:40:01;14.40;99.90
15617;DHT22;7908;51.688;7.130;2022-09-09T03:42:35;14.40;99.90
15617;DHT22;7908;51.688;7.130;2022-09-09T03:45:06;14.40;99.90
15617;DHT22;7908;51.688;7.130;2022-09-09T03:47:36;14.30;99.90
15617;DHT22;7908;51.688;7.130;2022-09-09T03:50:06;14.20;99.90
15617;DHT22;7908;51.688;7.130;2022-09-09T03:52:37;14.20;99.90
15617;DHT22;7908;51.688;7.130;2022-09-09T03:55:08;14.20;99.90
15617;DHT22;7908;51.688;7.130;2022-09-09T03:57:36;14.10;99.90
15617;DHT22;7908;51.688;7.130;2022-09-09T04:00:07;14.10;99.90
15617;DHT22;7908;51.688;7.130;2022-09-09T04:02:36;14.10;99.90
15617;DHT22;7908;51.688;7.130;2022-09-09T04:05:06;14.10;99.90
15617;DHT22;7908;51.688;7.130;2022-09-09T04:07:35;14.00;99.90
15617;DHT22;7908;51.688;7.130;2022-09-09T04:10:05;14.00;99.90
15617;DHT22;7908;51.688;7.130;2022-09-09T04:12:35;14.00;99.90
15617;DHT22;7908;51.688;7.130;2022-09-09T04:15:06;14.00;99.90
15617;DHT22;7908;51.688;7.130;2022-09-09T04:17:35;14.00;99.90
15617;DHT22;7908;51.688;7.130;2022-09-09T04:20:04;14.00;99.90
15617;DHT22;7908;51.688;7.130;2022-09-09T04:22:34;14.00;99.90
15617;DHT22;7908;51.688;7.130;2022-09-09T04:25:26;14.00;99.90
15617;DHT22;7908;51.688;7.130;2022-09-09T04:27:57;14.00;99.90
15617;DHT22;7908;51.688;7.130;2022-09-09T04:30:26;14.00;99.90
15617;DHT22;7908;51.688;7.130;2022-09-09T04:32:56;14.00;99.90
15617;DHT22;7908;51.688;7.130;2022-09-09T04:35:25;14.00;99.90
15617;DHT22;7908;51.688;7.130;2022-09-09T04:37:54;14.00;99.90
15617;DHT22;7908;51.688;7.130;2022-09-09T04:40:22;14.00;99.90
15617;DHT22;7908;51.688;7.130;2022-09-09T04:42:51;14.00;99.90
15617;DHT22;7908;51.688;7.130;2022-09-09T04:45:22;14.00;99.90
15617;DHT22;7908;51.688;7.130;2022-09-09T04:47:51;14.10;99.90
15617;DHT22;7908;51.688;7.130;2022-09-09T04:50:19;14.10;99.90
15617;DHT22;7908;51.688;7.130;2022-09-09T04:53:05;14.10;99.90
15617;DHT22;7908;51.688;7.130;2022-09-09T04:55:34;14.20;99.90
15617;DHT22;7908;51.688;7.130;2022-09-09T04:58:03;14.20;99.90
15617;DHT22;7908;51.688;7.130;2022-09-09T05:00:34;14.30;99.90
15617;DHT22;7908;51.688;7.130;2022-09-09T05:03:04;14.30;99.90
15617;DHT22;7908;51.688;7.130;2022-09-09T05:05:33;14.30;99.90
15617;DHT22;7908;51.688;7.130;2022-09-09T05:08:04;14.40;99.90
15617;DHT22;7908;51.688;7.130;2022-09-09T05:10:34;14.40;99.90
15617;DHT22;7908;51.688;7.130;2022-09-09T05:13:02;14.40;99.90
15617;DHT22;7908;51.688;7.130;2022-09-09T05:15:31;14.40;99.90
15617;DHT22;7908;51.688;7.130;2022-09-09T05:18:01;14.50;99.90
15617;DHT22;7908;51.688;7.130;2022-09-09T05:20:30;14.50;99.90
15617;DHT22;7908;51.688;7.130;2022-09-09T05:22:59;14.50;99.90
15617;DHT22;7908;51.688;7.130;2022-09-09T05:25:27;14.50;99.90
15617;DHT22;7908;51.688;7.130;2022-09-09T05:27:56;14.60;99.90
15617;DHT22;7908;51.688;7.130;2022-09-09T05:30:26;14.60;99.90
15617;DHT22;7908;51.688;7.130;2022-09-09T05:33:15;14.60;99.90
15617;DHT22;7908;51.688;7.130;2022-09-09T05:35:44;14.70;99.90
15617;DHT22;7908;51.688;7.130;2022-09-09T05:38:12;14.70;99.90
15617;DHT22;7908;51.688;7.130;2022-09-09T05:40:47;14.70;99.90
15617;DHT22;7908;51.688;7.130;2022-09-09T05:43:21;14.70;99.90
15617;DHT22;7908;51.688;7.130;2022-09-09T05:45:59;14.70;99.90
15617;DHT22;7908;51.688;7.130;2022-09-09T05:48:31;14.80;99.90
15617;DHT22;7908;51.688;7.130;2022-09-09T05:51:13;14.80;99.90
15617;DHT22;7908;51.688;7.130;2022-09-09T05:53:42;14.80;99.90
15617;DHT22;7908;51.688;7.130;2022-09-09T05:56:12;14.80;99.90
15617;DHT22;7908;51.688;7.130;2022-09-09T05:58:42;14.90;99.90
15617;DHT22;7908;51.688;7.130;2022-09-09T06:01:22;14.90;99.90
15617;DHT22;7908;51.688;7.130;2022-09-09T06:03:54;14.90;99.90
15617;DHT22;7908;51.688;7.130;2022-09-09T06:06:25;15.00;99.90
15617;DHT22;7908;51.688;7.130;2022-09-09T06:08:55;15.10;99.90
15617;DHT22;7908;51.688;7.130;2022-09-09T06:11:26;15.10;99.90
15617;DHT22;7908;51.688;7.130;2022-09-09T06:13:55;15.20;99.90
15617;DHT22;7908;51.688;7.130;2022-09-09T06:16:25;15.30;99.90
15617;DHT22;7908;51.688;7.130;2022-09-09T06:18:56;15.30;99.90
15617;DHT22;7908;51.688;7.130;2022-09-09T06:21:26;15.30;99.90
15617;DHT22;7908;51.688;7.130;2022-09-09T06:23:57;15.30;99.90
15617;DHT22;7908;51.688;7.130;2022-09-09T06:26:29;15.30;99.90
15617;DHT22;7908;51.688;7.130;2022-09-09T06:29:01;15.40;99.90
15617;DHT22;7908;51.688;7.130;2022-09-09T06:31:32;15.30;99.90
15617;DHT22;7908;51.688;7.130;2022-09-09T06:34:05;15.30;99.90
15617;DHT22;7908;51.688;7.130;2022-09-09T06:36:35;15.40;99.90
15617;DHT22;7908;51.688;7.130;2022-09-09T06:39:05;15.40;99.90
15617;DHT22;7908;51.688;7.130;2022-09-09T06:41:40;15.50;99.90
15617;DHT22;7908;51.688;7.130;2022-09-09T06:44:09;15.50;99.90
15617;DHT22;7908;51.688;7.130;2022-09-09T06:46:40;15.40;99.90
15617;DHT22;7908;51.688;7.130;2022-09-09T06:49:11;15.50;99.90
15617;DHT22;7908;51.688;7.130;2022-09-09T06:51:40;15.50;99.90
15617;DHT22;7908;51.688;7.130;2022-09-09T06:54:10;15.50;99.90
15617;DHT22;7908;51.688;7.130;2022-09-09T06:56:40;15.60;99.90
15617;DHT22;7908;51.688;7.130;2022-09-09T06:59:10;15.70;99.90
15617;DHT22;7908;51.688;7.130;2022-09-09T07:01:41;15.70;99.90
15617;DHT22;7908;51.688;7.130;2022-09-09T07:04:12;15.80;99.90
15617;DHT22;7908;51.688;7.130;2022-09-09T07:06:43;15.80;99.90
15617;DHT22;7908;51.688;7.130;2022-09-09T07:09:14;15.80;99.90
15617;DHT22;7908;51.688;7.130;2022-09-09T07:11:44;15.80;99.90
15617;DHT22;7908;51.688;7.130;2022-09-09T07:14:13;15.80;99.90
15617;DHT22;7908;51.688;7.130;2022-09-09T07:16:47;15.80;99.90
15617;DHT22;7908;51.688;7.130;2022-09-09T07:19:18;15.90;99.90
15617;DHT22;7908;51.688;7.130;2022-09-09T07:21:46;15.90;99.90
15617;DHT22;7908;51.688;7.130;2022-09-09T07:24:15;16.00;99.90
15617;DHT22;7908;51.688;7.130;2022-09-09T07:27:04;16.10;99.90
15617;DHT22;7908;51.688;7.130;2022-09-09T07:29:32;16.30;99.90
15617;DHT22;7908;51.688;7.130;2022-09-09T07:32:01;16.40;99.90
15617;DHT22;7908;51.688;7.130;2022-09-09T07:34:32;16.50;99.90
15617;DHT22;7908;51.688;7.130;2022-09-09T07:37:01;16.70;99.90
15617;DHT22;7908;51.688;7.130;2022-09-09T07:39:30;16.80;99.90
15617;DHT22;7908;51.688;7.130;2022-09-09T07:41:59;16.80;99.90
15617;DHT22;7908;51.688;7.130;2022-09-09T07:44:27;16.70;99.90
15617;DHT22;7908;51.688;7.130;2022-09-09T07:46:58;16.80;99.90
15617;DHT22;7908;51.688;7.130;2022-09-09T07:49:27;16.80;99.90
15617;DHT22;7908;51.688;7.130;2022-09-09T07:52:00;16.80;99.90
15617;DHT22;7908;51.688;7.130;2022-09-09T07:54:29;16.80;99.90
15617;DHT22;7908;51.688;7.130;2022-09-09T07:56:58;16.80;99.90
15617;DHT22;7908;51.688;7.130;2022-09-09T07:59:27;16.80;99.90
15617;DHT22;7908;51.688;7.130;2022-09-09T08:02:02;16.80;99.90
15617;DHT22;7908;51.688;7.130;2022-09-09T08:04:30;16.90;99.90
15617;DHT22;7908;51.688;7.130;2022-09-09T08:07:01;17.10;99.90
15617;DHT22;7908;51.688;7.130;2022-09-09T08:09:30;17.10;99.90
15617;DHT22;7908;51.688;7.130;2022-09-09T08:12:01;17.20;99.90
15617;DHT22;7908;51.688;7.130;2022-09-09T08:14:29;17.30;99.90
15617;DHT22;7908;51.688;7.130;2022-09-09T08:17:14;17.40;99.90
15617;DHT22;7908;51.688;7.130;2022-09-09T08:19:54;17.50;99.90
15617;DHT22;7908;51.688;7.130;2022-09-09T08:22:39;17.40;99.90
15617;DHT22;7908;51.688;7.130;2022-09-09T08:25:09;17.40;99.90
15617;DHT22;7908;51.688;7.130;2022-09-09T08:27:37;17.30;99.90
15617;DHT22;7908;51.688;7.130;2022-09-09T08:30:07;17.10;99.90
15617;DHT22;7908;51.688;7.130;2022-09-09T08:32:35;16.90;99.90
15617;DHT22;7908;51.688;7.130;2022-09-09T08:35:08;16.80;99.90
15617;DHT22;7908;51.688;7.130;2022-09-09T08:37:38;16.90;99.90
15617;DHT22;7908;51.688;7.130;2022-09-09T08:40:10;16.90;99.90
15617;DHT22;7908;51.688;7.130;2022-09-09T08:42:50;17.10;99.90
15617;DHT22;7908;51.688;7.130;2022-09-09T08:45:34;17.20;99.90
15617;DHT22;7908;51.688;7.130;2022-09-09T08:48:20;17.20;99.90
15617;DHT22;7908;51.688;7.130;2022-09-09T08:50:52;17.10;99.90
15617;DHT22;7908;51.688;7.130;2022-09-09T08:53:49;17.00;99.90
15617;DHT22;7908;51.688;7.130;2022-09-09T08:56:26;16.90;99.90
15617;DHT22;7908;51.688;7.130;2022-09-09T08:58:55;16.90;99.90
15617;DHT22;7908;51.688;7.130;2022-09-09T09:01:39;16.90;99.90
15617;DHT22;7908;51.688;7.130;2022-09-09T09:04:19;16.90;99.90
15617;DHT22;7908;51.688;7.130;2022-09-09T09:06:54;17.00;99.90
15617;DHT22;7908;51.688;7.130;2022-09-09T09:09:34;17.00;99.90
15617;DHT22;7908;51.688;7.130;2022-09-09T09:12:13;16.90;99.90
15617;DHT22;7908;51.688;7.130;2022-09-09T09:14:46;16.90;99.90
15617;DHT22;7908;51.688;7.130;2022-09-09T09:17:18;17.00;99.90
15617;DHT22;7908;51.688;7.130;2022-09-09T09:19:48;17.00;99.90
15617;DHT22;7908;51.688;7.130;2022-09-09T09:22:19;16.90;99.90
15617;DHT22;7908;51.688;7.130;2022-09-09T09:24:53;17.00;99.90
15617;DHT22;7908;51.688;7.130;2022-09-09T09:27:43;17.10;99.90
15617;DHT22;7908;51.688;7.130;2022-09-09T09:30:17;17.30;99.90
15617;DHT22;7908;51.688;7.130;2022-09-09T09:32:58;17.40;99.90
15617;DHT22;7908;51.688;7.130;2022-09-09T09:35:30;17.50;99.90
15617;DHT22;7908;51.688;7.130;2022-09-09T09:38:14;17.60;99.90
15617;DHT22;7908;51.688;7.130;2022-09-09T09:41:05;17.80;99.90
15617;DHT22;7908;51.688;7.130;2022-09-09T09:43:37;17.80;99.90
15617;DHT22;7908;51.688;7.130;2022-09-09T09:46:20;17.90;99.90
15617;DHT22;7908;51.688;7.130;2022-09-09T09:48:57;18.00;99.90
15617;DHT22;7908;51.688;7.130;2022-09-09T09:51:45;18.10;99.90
15617;DHT22;7908;51.688;7.130;2022-09-09T09:54:19;18.10;99.90
15617;DHT22;7908;51.688;7.130;2022-09-09T09:56:51;18.20;99.90
15617;DHT22;7908;51.688;7.130;2022-09-09T09:59:23;18.30;99.90
15617;DHT22;7908;51.688;7.130;2022-09-09T10:02:16;18.30;99.90
15617;DHT22;7908;51.688;7.130;2022-09-09T10:04:45;18.30;99.90
15617;DHT22;7908;51.688;7.130;2022-09-09T10:07:19;18.40;99.90
15617;DHT22;7908;51.688;7.130;2022-09-09T10:09:52;18.50;99.90
15617;DHT22;7908;51.688;7.130;2022-09-09T10:12:35;18.60;99.90
15617;DHT22;7908;51.688;7.130;2022-09-09T10:15:22;18.80;99.90
15617;DHT22;7908;51.688;7.130;2022-09-09T10:18:02;19.10;99.90
15617;DHT22;7908;51.688;7.130;2022-09-09T10:20:39;19.30;99.90
15617;DHT22;7908;51.688;7.130;2022-09-09T10:23:25;19.40;99.90
15617;DHT22;7908;51.688;7.130;2022-09-09T10:26:11;19.50;99.90
15617;DHT22;7908;51.688;7.130;2022-09-09T10:29:02;19.70;99.90
15617;DHT22;7908;51.688;7.130;2022-09-09T10:31:40;19.80;99.90
15617;DHT22;7908;51.688;7.130;2022-09-09T10:34:45;19.90;99.90
15617;DHT22;7908;51.688;7.130;2022-09-09T10:37:23;20.10;99.90
15617;DHT22;7908;51.688;7.130;2022-09-09T10:40:04;20.10;99.90
15617;DHT22;7908;51.688;7.130;2022-09-09T10:42:40;20.20;99.90
15617;DHT22;7908;51.688;7.130;2022-09-09T10:45:17;20.10;99.90
15617;DHT22;7908;51.688;7.130;2022-09-09T10:48:11;20.20;99.90
15617;DHT22;7908;51.688;7.130;2022-09-09T10:50:51;20.20;99.90
15617;DHT22;7908;51.688;7.130;2022-09-09T10:53:36;20.20;99.90
15617;DHT22;7908;51.688;7.130;2022-09-09T10:56:08;20.30;99.90
15617;DHT22;7908;51.688;7.130;2022-09-09T10:58:42;20.40;99.90
15617;DHT22;7908;51.688;7.130;2022-09-09T11:01:21;20.50;99.90
15617;DHT22;7908;51.688;7.130;2022-09-09T11:03:55;20.50;99.90
15617;DHT22;7908;51.688;7.130;2022-09-09T11:06:30;20.40;99.90
15617;DHT22;7908;51.688;7.130;2022-09-09T11:09:02;20.60;99.90
15617;DHT22;7908;51.688;7.130;2022-09-09T11:11:41;20.60;99.90
15617;DHT22;7908;51.688;7.130;2022-09-09T11:14:14;20.60;99.90
15617;DHT22;7908;51.688;7.130;2022-09-09T11:16:50;20.70;99.90
15617;DHT22;7908;51.688;7.130;2022-09-09T11:19:27;20.90;99.90
15617;DHT22;7908;51.688;7.130;2022-09-09T11:21:57;20.90;99.90
15617;DHT22;7908;51.688;7.130;2022-09-09T11:24:35;20.70;99.90
15617;DHT22;7908;51.688;7.130;2022-09-09T11:27:10;20.60;99.90
15617;DHT22;7908;51.688;7.130;2022-09-09T11:42:36;20.70;99.90
15617;DHT22;7908;51.688;7.130;2022-09-09T11:45:11;20.80;99.90
15617;DHT22;7908;51.688;7.130;2022-09-09T11:47:52;20.90;99.90
15617;DHT22;7908;51.688;7.130;2022-09-09T11:50:31;21.00;99.90
15617;DHT22;7908;51.688;7.130;2022-09-09T11:56:29;20.90;99.90
15617;DHT22;7908;51.688;7.130;2022-09-09T11:59:01;20.90;99.90
15617;DHT22;7908;51.688;7.130;2022-09-09T12:01:38;20.90;99.90
15617;DHT22;7908;51.688;7.130;2022-09-09T12:04:16;20.90;99.90
15617;DHT22;7908;51.688;7.130;2022-09-09T12:06:51;20.90;99.90
15617;DHT22;7908;51.688;7.130;2022-09-09T12:09:32;20.90;99.90
15617;DHT22;7908;51.688;7.130;2022-09-09T12:12:06;20.80;99.90
15617;DHT22;7908;51.688;7.130;2022-09-09T12:14:37;20.80;99.90
15617;DHT22;7908;51.688;7.130;2022-09-09T12:17:27;20.80;99.90
15617;DHT22;7908;51.688;7.130;2022-09-09T12:20:02;20.80;99.90
15617;DHT22;7908;51.688;7.130;2022-09-09T12:22:41;20.80;99.90
15617;DHT22;7908;51.688;7.130;2022-09-09T12:25:23;21.00;99.90
15617;DHT22;7908;51.688;7.130;2022-09-09T12:28:24;21.20;99.90
15617;DHT22;7908;51.688;7.130;2022-09-09T12:31:01;21.30;99.90
15617;DHT22;7908;51.688;7.130;2022-09-09T12:33:36;21.20;99.90
15617;DHT22;7908;51.688;7.130;2022-09-09T12:36:17;21.00;99.90
15617;DHT22;7908;51.688;7.130;2022-09-09T12:38:50;20.50;99.90
15617;DHT22;7908;51.688;7.130;2022-09-09T12:41:25;19.40;99.90
15617;DHT22;7908;51.688;7.130;2022-09-09T12:44:23;18.50;99.90
15617;DHT22;7908;51.688;7.130;2022-09-09T12:46:53;17.90;99.90
15617;DHT22;7908;51.688;7.130;2022-09-09T12:49:29;17.90;99.90
15617;DHT22;7908;51.688;7.130;2022-09-09T12:52:04;18.00;99.90
15617;DHT22;7908;51.688;7.130;2022-09-09T12:54:36;18.20;99.90
15617;DHT22;7908;51.688;7.130;2022-09-09T12:57:11;18.20;99.90
15617;DHT22;7908;51.688;7.130;2022-09-09T13:00:12;18.30;99.90
15617;DHT22;7908;51.688;7.130;2022-09-09T13:02:57;18.20;99.90
15617;DHT22;7908;51.688;7.130;2022-09-09T13:05:34;18.20;99.90
15617;DHT22;7908;51.688;7.130;2022-09-09T13:08:08;18.20;99.90
15617;DHT22;7908;51.688;7.130;2022-09-09T13:10:43;18.30;99.90
15617;DHT22;7908;51.688;7.130;2022-09-09T13:13:25;18.30;99.90
15617;DHT22;7908;51.688;7.130;2022-09-09T13:16:02;18.40;99.90
15617;DHT22;7908;51.688;7.130;2022-09-09T13:18:39;18.30;99.90
15617;DHT22;7908;51.688;7.130;2022-09-09T13:21:12;18.20;99.90
15617;DHT22;7908;51.688;7.130;2022-09-09T13:23:42;18.00;99.90
15617;DHT22;7908;51.688;7.130;2022-09-09T13:26:22;17.60;99.90
15617;DHT22;7908;51.688;7.130;2022-09-09T13:29:14;17.30;99.90
15617;DHT22;7908;51.688;7.130;2022-09-09T13:31:46;17.10;99.90
15617;DHT22;7908;51.688;7.130;2022-09-09T13:34:30;16.90;99.90
15617;DHT22;7908;51.688;7.130;2022-09-09T13:37:02;16.80;99.90
15617;DHT22;7908;51.688;7.130;2022-09-09T13:39:35;16.80;99.90
15617;DHT22;7908;51.688;7.130;2022-09-09T13:42:26;16.90;99.90
15617;DHT22;7908;51.688;7.130;2022-09-09T13:44:59;16.90;99.90
15617;DHT22;7908;51.688;7.130;2022-09-09T13:47:36;17.00;99.90
15617;DHT22;7908;51.688;7.130;2022-09-09T13:50:19;17.10;99.90
15617;DHT22;7908;51.688;7.130;2022-09-09T13:52:53;17.00;99.90
15617;DHT22;7908;51.688;7.130;2022-09-09T13:55:30;16.90;99.90
15617;DHT22;7908;51.688;7.130;2022-09-09T13:58:02;16.80;99.90
15617;DHT22;7908;51.688;7.130;2022-09-09T14:00:39;16.80;99.90
15617;DHT22;7908;51.688;7.130;2022-09-09T14:03:09;16.90;99.90
15617;DHT22;7908;51.688;7.130;2022-09-09T14:05:41;17.00;99.90
15617;DHT22;7908;51.688;7.130;2022-09-09T14:08:22;17.10;99.90
15617;DHT22;7908;51.688;7.130;2022-09-09T14:11:00;17.20;99.90
15617;DHT22;7908;51.688;7.130;2022-09-09T14:13:33;17.30;99.90
15617;DHT22;7908;51.688;7.130;2022-09-09T14:16:13;17.40;99.90
15617;DHT22;7908;51.688;7.130;2022-09-09T14:18:44;17.50;99.90
15617;DHT22;7908;51.688;7.130;2022-09-09T14:21:16;17.60;99.90
15617;DHT22;7908;51.688;7.130;2022-09-09T14:23:49;17.50;99.90
15617;DHT22;7908;51.688;7.130;2022-09-09T14:26:34;17.50;99.90
15617;DHT22;7908;51.688;7.130;2022-09-09T14:29:03;17.40;99.90
15617;DHT22;7908;51.688;7.130;2022-09-09T14:31:41;17.30;99.90
15617;DHT22;7908;51.688;7.130;2022-09-09T14:34:12;17.20;99.90
15617;DHT22;7908;51.688;7.130;2022-09-09T14:36:47;17.20;99.90
15617;DHT22;7908;51.688;7.130;2022-09-09T14:39:19;17.20;99.90
15617;DHT22;7908;51.688;7.130;2022-09-09T14:41:56;17.30;99.90
15617;DHT22;7908;51.688;7.130;2022-09-09T14:44:26;17.40;99.90
15617;DHT22;7908;51.688;7.130;2022-09-09T14:46:56;17.60;99.90
15617;DHT22;7908;51.688;7.130;2022-09-09T14:51:58;17.80;99.90
15617;DHT22;7908;51.688;7.130;2022-09-09T14:54:31;17.80;99.90
15617;DHT22;7908;51.688;7.130;2022-09-09T14:57:06;17.70;99.90
15617;DHT22;7908;51.688;7.130;2022-09-09T14:59:35;17.70;99.90
15617;DHT22;7908;51.688;7.130;2022-09-09T15:02:11;17.60;99.90
15617;DHT22;7908;51.688;7.130;2022-09-09T15:04:41;17.60;99.90
15617;DHT22;7908;51.688;7.130;2022-09-09T15:07:14;17.60;99.90
15617;DHT22;7908;51.688;7.130;2022-09-09T15:09:43;17.60;99.90
15617;DHT22;7908;51.688;7.130;2022-09-09T15:12:14;17.60;99.90
15617;DHT22;7908;51.688;7.130;2022-09-09T15:14:46;17.50;99.90
15617;DHT22;7908;51.688;7.130;2022-09-09T15:17:18;17.40;99.90
15617;DHT22;7908;51.688;7.130;2022-09-09T15:19:47;17.30;99.90
15617;DHT22;7908;51.688;7.130;2022-09-09T15:22:18;17.30;99.90
15617;DHT22;7908;51.688;7.130;2022-09-09T15:24:49;17.10;99.90
15617;DHT22;7908;51.688;7.130;2022-09-09T15:27:21;16.90;99.90
15617;DHT22;7908;51.688;7.130;2022-09-09T15:29:50;16.60;99.90
15617;DHT22;7908;51.688;7.130;2022-09-09T15:32:23;16.30;99.90
15617;DHT22;7908;51.688;7.130;2022-09-09T15:34:53;16.20;99.90
15617;DHT22;7908;51.688;7.130;2022-09-09T15:37:21;16.10;99.90
15617;DHT22;7908;51.688;7.130;2022-09-09T15:39:50;16.10;99.90
15617;DHT22;7908;51.688;7.130;2022-09-09T15:42:26;16.10;99.90
15617;DHT22;7908;51.688;7.130;2022-09-09T15:45:03;16.00;99.90
15617;DHT22;7908;51.688;7.130;2022-09-09T15:47:35;15.90;99.90
15617;DHT22;7908;51.688;7.130;2022-09-09T15:50:10;15.80;99.90
15617;DHT22;7908;51.688;7.130;2022-09-09T15:52:43;15.80;99.90
15617;DHT22;7908;51.688;7.130;2022-09-09T15:55:17;15.70;99.90
15617;DHT22;7908;51.688;7.130;2022-09-09T15:57:58;15.60;99.90
15617;DHT22;7908;51.688;7.130;2022-09-09T16:00:28;15.60;99.90
15617;DHT22;7908;51.688;7.130;2022-09-09T16:03:03;15.40;99.90
15617;DHT22;7908;51.688;7.130;2022-09-09T16:05:34;15.30;99.90
15617;DHT22;7908;51.688;7.130;2022-09-09T16:08:05;15.30;99.90
15617;DHT22;7908;51.688;7.130;2022-09-09T16:10:43;15.20;99.90
15617;DHT22;7908;51.688;7.130;2022-09-09T16:13:23;15.20;99.90
15617;DHT22;7908;51.688;7.130;2022-09-09T16:16:00;15.20;99.90
15617;DHT22;7908;51.688;7.130;2022-09-09T16:18:52;15.30;99.90
15617;DHT22;7908;51.688;7.130;2022-09-09T16:21:32;15.20;99.90
15617;DHT22;7908;51.688;7.130;2022-09-09T16:24:05;15.30;99.90
15617;DHT22;7908;51.688;7.130;2022-09-09T16:26:42;15.30;99.90
15617;DHT22;7908;51.688;7.130;2022-09-09T16:29:24;15.40;99.90
15617;DHT22;7908;51.688;7.130;2022-09-09T16:31:55;15.40;99.90
15617;DHT22;7908;51.688;7.130;2022-09-09T16:34:33;15.50;99.90
15617;DHT22;7908;51.688;7.130;2022-09-09T16:37:05;15.40;99.90
15617;DHT22;7908;51.688;7.130;2022-09-09T16:39:46;15.60;99.90
15617;DHT22;7908;51.688;7.130;2022-09-09T16:42:20;15.60;99.90
15617;DHT22;7908;51.688;7.130;2022-09-09T16:44:50;15.60;99.90
15617;DHT22;7908;51.688;7.130;2022-09-09T16:47:25;15.60;99.90
15617;DHT22;7908;51.688;7.130;2022-09-09T16:49:56;15.60;99.90
15617;DHT22;7908;51.688;7.130;2022-09-09T16:52:28;15.60;99.90
15617;DHT22;7908;51.688;7.130;2022-09-09T16:54:59;15.60;99.90
15617;DHT22;7908;51.688;7.130;2022-09-09T16:57:31;15.50;99.90
15617;DHT22;7908;51.688;7.130;2022-09-09T17:00:32;15.60;99.90
15617;DHT22;7908;51.688;7.130;2022-09-09T17:03:13;15.60;99.90
15617;DHT22;7908;51.688;7.130;2022-09-09T17:05:50;15.60;99.90
15617;DHT22;7908;51.688;7.130;2022-09-09T17:08:32;15.60;99.90
15617;DHT22;7908;51.688;7.130;2022-09-09T17:11:03;15.60;99.90
15617;DHT22;7908;51.688;7.130;2022-09-09T17:13:33;15.50;99.90
15617;DHT22;7908;51.688;7.130;2022-09-09T17:16:06;15.60;99.90
15617;DHT22;7908;51.688;7.130;2022-09-09T17:18:39;15.60;99.90
15617;DHT22;7908;51.688;7.130;2022-09-09T17:21:15;15.50;99.90
15617;DHT22;7908;51.688;7.130;2022-09-09T17:23:50;15.50;99.90
15617;DHT22;7908;51.688;7.130;2022-09-09T17:26:23;15.50;99.90
15617;DHT22;7908;51.688;7.130;2022-09-09T17:28:56;15.40;99.90
15617;DHT22;7908;51.688;7.130;2022-09-09T17:49:14;15.20;99.90
15617;DHT22;7908;51.688;7.130;2022-09-09T17:52:34;15.30;99.90
15617;DHT22;7908;51.688;7.130;2022-09-09T17:58:14;15.30;99.90